Time;durP1;ratioP1;P1;durP2;ratioP2;P2;SDS_P1;SDS_P2;PMS_P1;PMS_P2;Temp;Humidity;BMP_temperature;BMP_pressure;BME280_temperature;BME280_humidity;BME280_pressure;Samples;Min_cycle;Max_cycle;Signal;HPM_P1;HPM_P2
2021/04/12 00:00:06;;;;;;;5.28;4.40;;;;;;;4.46;90.76;100865.34;4937421;28;20075;-71
2021/04/12 00:02:38;;;;;;;;;;;;;;;4.49;90.43;100883.50;4967536;28;20425;-69
2021/04/12 00:05:21;;;;;;;6.15;4.45;;;;;;;4.39;89.73;100900.31;4948322;28;19972;-71
2021/04/12 00:08:05;;;;;;;5.90;4.70;;;;;;;4.21;89.94;100893.03;4947092;28;20526;-71
2021/04/12 00:10:49;;;;;;;8.05;4.35;;;;;;;4.09;89.50;100904.63;4947334;28;20043;-72
2021/04/12 00:13:30;;;;;;;7.55;4.05;;;;;;;4.12;89.78;100906.31;4961287;28;20047;-74
2021/04/12 00:16:08;;;;;;;5.78;4.47;;;;;;;4.21;89.61;100908.66;4952555;28;20069;-72
2021/04/12 00:18:41;;;;;;;4.93;4.05;;;;;;;4.20;88.39;100899.13;4952485;28;20093;-71
2021/04/12 00:21:22;;;;;;;5.53;4.25;;;;;;;4.22;88.34;100895.56;4962953;28;20137;-71
2021/04/12 00:23:50;;;;;;;4.43;4.00;;;;;;;4.13;88.42;100890.63;4957610;28;20129;-72
2021/04/12 00:26:42;;;;;;;6.35;4.68;;;;;;;3.99;90.18;100895.38;4952417;28;20114;-71
2021/04/12 00:29:14;;;;;;;5.60;4.32;;;;;;;4.07;90.84;100888.19;4945469;28;20050;-71
2021/04/12 00:31:47;;;;;;;4.47;3.80;;;;;;;4.06;89.45;100907.34;4937759;28;20497;-72
2021/04/12 00:34:24;;;;;;;3.85;3.53;;;;;;;3.93;89.90;100934.59;4940004;28;20057;-71
2021/04/12 00:36:58;;;;;;;3.80;3.40;;;;;;;3.96;88.54;100944.94;4939631;28;20520;-71
2021/04/12 00:39:41;;;;;;;6.45;4.18;;;;;;;3.80;88.67;100944.50;4948507;28;20072;-71
2021/04/12 00:42:44;;;;;;;6.97;4.45;;;;;;;3.71;88.90;100919.53;4959754;28;20059;-71
2021/04/12 00:45:35;;;;;;;5.50;4.13;;;;;;;3.57;89.54;100934.66;4947813;28;20051;-72
2021/04/12 00:48:02;;;;;;;5.50;4.35;;;;;;;3.51;89.84;100935.69;4974083;28;20043;-72
2021/04/12 00:50:43;;;;;;;6.88;4.90;;;;;;;3.55;90.74;100944.25;4954223;28;20149;-70
2021/04/12 00:53:32;;;;;;;6.82;4.30;;;;;;;3.72;90.64;100936.88;4946552;28;20137;-72
2021/04/12 00:56:18;;;;;;;4.40;3.95;;;;;;;3.67;91.02;100937.88;4962978;28;20059;-74
2021/04/12 00:58:57;;;;;;;6.68;4.45;;;;;;;3.53;92.76;100933.88;4947371;28;20102;-72
2021/04/12 01:01:45;;;;;;;6.72;4.95;;;;;;;3.60;93.63;100944.13;4956284;28;20153;-72
2021/04/12 01:04:32;;;;;;;6.32;4.22;;;;;;;3.56;92.75;100927.75;4940081;28;20077;-74
2021/04/12 01:07:01;;;;;;;6.30;5.20;;;;;;;3.42;93.72;100928.09;4947959;28;20508;-72
2021/04/12 01:09:40;;;;;;;9.38;5.35;;;;;;;3.28;94.33;100943.16;4969741;28;20114;-71
2021/04/12 01:12:52;;;;;;;9.02;5.53;;;;;;;3.29;95.68;100937.94;4945940;28;20054;-73
2021/04/12 01:15:56;;;;;;;6.53;5.65;;;;;;;3.43;95.60;100953.22;4961038;28;20498;-72
2021/04/12 01:18:33;;;;;;;7.80;5.97;;;;;;;3.37;94.84;100958.56;4967582;28;20055;-70
2021/04/12 01:21:02;;;;;;;9.15;5.43;;;;;;;3.32;95.54;100959.56;4969977;28;20074;-71
2021/04/12 01:23:48;;;;;;;7.03;5.43;;;;;;;3.28;96.41;100977.84;4968911;28;20145;-72
2021/04/12 01:26:52;;;;;;;9.15;5.85;;;;;;;3.33;95.77;100974.28;4958771;28;20053;-74
2021/04/12 01:29:49;;;;;;;12.05;6.43;;;;;;;3.07;97.57;100988.75;4971111;28;20474;-72
2021/04/12 01:32:38;;;;;;;6.18;5.18;;;;;;;3.02;97.90;101003.63;4966258;28;20518;-72
2021/04/12 01:35:35;;;;;;;9.38;5.60;;;;;;;3.08;98.62;101008.66;4957700;28;20138;-70
2021/04/12 01:38:14;;;;;;;10.35;5.25;;;;;;;3.10;98.21;101012.09;4972061;28;20043;-71
2021/04/12 01:40:58;;;;;;;8.43;5.40;;;;;;;3.11;98.51;101010.34;4963258;28;20136;-71
2021/04/12 01:43:29;;;;;;;7.47;5.68;;;;;;;3.08;98.68;101018.22;4963437;28;20412;-73
2021/04/12 01:46:19;;;;;;;7.88;5.80;;;;;;;3.04;99.15;101017.44;4943790;28;20126;-72
2021/04/12 01:48:58;;;;;;;7.60;5.65;;;;;;;3.00;99.48;101028.78;4977666;28;20270;-74
2021/04/12 01:51:38;;;;;;;9.23;5.03;;;;;;;2.91;99.29;101029.84;4974615;28;20061;-71
2021/04/12 01:54:30;;;;;;;6.75;4.90;;;;;;;3.07;99.33;101037.31;4970149;28;20600;-72
2021/04/12 01:57:34;;;;;;;8.05;5.65;;;;;;;2.96;99.72;101033.19;4958351;28;20512;-71
2021/04/12 02:00:17;;;;;;;8.10;5.25;;;;;;;3.09;99.46;101025.13;4958732;28;20185;-71
2021/04/12 02:03:06;;;;;;;7.65;5.80;;;;;;;3.17;99.19;101031.03;4954180;28;20358;-71
2021/04/12 02:05:55;;;;;;;7.57;5.82;;;;;;;3.07;98.98;101035.59;4972612;28;20536;-70
2021/04/12 02:08:34;;;;;;;7.03;5.40;;;;;;;3.12;98.70;101036.34;4971960;28;20061;-70
2021/04/12 02:11:26;;;;;;;5.97;4.85;;;;;;;2.98;99.67;101035.78;4953297;28;20584;-73
2021/04/12 02:14:13;;;;;;;9.35;6.25;;;;;;;2.97;100.00;101034.91;4962027;28;20601;-72
2021/04/12 02:16:54;;;;;;;9.45;5.72;;;;;;;2.91;100.00;101041.97;4951646;28;20145;-70
2021/04/12 02:19:58;;;;;;;6.22;5.38;;;;;;;2.96;100.00;101043.59;4938118;28;20064;-71
2021/04/12 02:22:53;;;;;;;8.68;5.20;;;;;;;2.84;100.00;101041.25;4951301;28;20047;-71
2021/04/12 02:25:57;;;;;;;8.32;5.95;;;;;;;2.79;100.00;101045.66;4976761;28;20054;-70
2021/04/12 02:28:43;;;;;;;8.32;6.05;;;;;;;2.82;100.00;101049.97;4951049;28;20128;-72
2021/04/12 02:31:21;;;;;;;;;;;;;;;2.92;100.00;101043.69;4974242;28;20129;-72
2021/04/12 02:34:09;;;;;;;7.07;5.10;;;;;;;2.98;100.00;101040.97;4954996;28;20158;-71
2021/04/12 02:37:00;;;;;;;6.40;4.75;;;;;;;2.83;100.00;101036.94;4951938;28;20379;-72
2021/04/12 02:39:52;;;;;;;6.05;5.25;;;;;;;2.77;100.00;101031.88;4948323;28;20059;-71
2021/04/12 02:42:44;;;;;;;5.95;4.60;;;;;;;2.91;100.00;101050.63;4979241;28;20263;-70
2021/04/12 02:45:35;;;;;;;9.27;5.22;;;;;;;2.97;100.00;101057.44;4952319;28;20085;-72
2021/04/12 02:48:29;;;;;;;5.70;4.90;;;;;;;3.07;100.00;101058.13;4950880;28;20046;-72
2021/04/12 02:51:17;;;;;;;6.43;5.55;;;;;;;2.87;100.00;101059.38;4969544;28;20596;-72
2021/04/12 02:54:16;;;;;;;8.27;5.47;;;;;;;2.77;100.00;101050.91;4952472;28;20059;-72
2021/04/12 02:57:23;;;;;;;9.13;5.93;;;;;;;2.77;100.00;101047.47;4942366;28;20054;-71
2021/04/12 03:00:04;;;;;;;7.03;5.28;;;;;;;2.92;100.00;101057.53;4950458;28;21676;-71
2021/04/12 03:02:49;;;;;;;9.93;5.65;;;;;;;2.85;100.00;101066.38;4951692;28;20054;-72
2021/04/12 03:06:00;;;;;;;7.47;6.03;;;;;;;3.18;100.00;101057.00;4966534;28;20134;-71
2021/04/12 03:08:47;;;;;;;5.57;5.00;;;;;;;2.90;100.00;101056.72;4964618;28;20474;-72
2021/04/12 03:11:51;;;;;;;8.77;6.07;;;;;;;3.01;100.00;101057.34;4971536;28;20042;-72
2021/04/12 03:14:40;;;;;;;6.90;5.72;;;;;;;3.00;100.00;101058.25;4972835;28;20506;-72
2021/04/12 03:17:40;;;;;;;11.00;6.00;;;;;;;3.16;100.00;101060.53;4939737;28;20043;-72
2021/04/12 03:20:31;;;;;;;12.90;6.70;;;;;;;3.10;100.00;101047.66;4968196;28;20074;-72
2021/04/12 03:23:12;;;;;;;8.05;6.13;;;;;;;3.19;100.00;101053.50;4953819;28;20134;-71
2021/04/12 03:25:51;;;;;;;11.32;5.70;;;;;;;3.30;100.00;101063.69;4971052;28;20413;-72
2021/04/12 03:28:41;;;;;;;8.38;5.93;;;;;;;3.32;99.32;101061.06;4956054;28;20055;-71
2021/04/12 03:31:34;;;;;;;8.85;5.97;;;;;;;3.09;99.32;101052.00;4950989;28;20126;-71
2021/04/12 03:34:28;;;;;;;8.05;6.15;;;;;;;3.27;100.00;101048.13;4953334;28;20093;-71
2021/04/12 03:37:05;;;;;;;7.88;6.22;;;;;;;3.29;100.00;101047.22;4940879;28;20051;-71
2021/04/12 03:39:52;;;;;;;11.05;6.63;;;;;;;3.31;99.42;101057.59;4940935;28;20138;-73
2021/04/12 03:42:36;;;;;;;7.95;6.25;;;;;;;3.53;99.44;101066.63;4946650;28;20043;-72
2021/04/12 03:45:41;;;;;;;9.10;5.63;;;;;;;3.65;98.04;101078.53;4970330;28;20517;-72
2021/04/12 03:48:38;;;;;;;8.68;5.95;;;;;;;3.48;98.29;101072.84;4948949;28;20114;-71
2021/04/12 03:51:17;;;;;;;8.38;5.93;;;;;;;3.57;98.84;101066.56;4958803;28;20055;-72
2021/04/12 03:53:49;;;;;;;10.43;5.68;;;;;;;3.64;98.79;101075.94;4968047;28;20047;-73
2021/04/12 03:56:24;;;;;;;7.10;5.43;;;;;;;3.69;98.00;101081.88;4956518;28;20059;-71
2021/04/12 03:59:17;;;;;;;9.48;5.63;;;;;;;3.49;97.44;101093.63;4959694;28;20069;-71
2021/04/12 04:02:12;;;;;;;8.93;5.80;;;;;;;3.53;98.26;101092.66;4966855;28;20057;-71
2021/04/12 04:05:17;;;;;;;7.55;5.82;;;;;;;3.57;96.90;101079.59;4948373;28;20058;-71
2021/04/12 04:08:04;;;;;;;6.95;5.45;;;;;;;3.52;97.32;101093.56;4977413;28;20050;-70
2021/04/12 04:10:58;;;;;;;9.45;5.40;;;;;;;3.56;96.88;101102.16;4953371;28;20082;-71
2021/04/12 04:13:31;;;;;;;;;;;;;;;3.32;96.47;101108.75;4969424;28;20227;-71
2021/04/12 04:16:33;;;;;;;6.88;4.75;;;;;;;3.35;96.80;101123.44;4964936;28;20485;-70
2021/04/12 04:19:05;;;;;;;8.55;5.35;;;;;;;3.36;96.78;101128.59;4971016;28;20979;-72
2021/04/12 04:21:45;;;;;;;7.20;5.22;;;;;;;3.52;96.55;101131.75;4956118;28;20058;-72
2021/04/12 04:24:42;;;;;;;6.53;4.72;;;;;;;3.55;95.70;101127.31;4953929;28;20271;-70
2021/04/12 04:27:27;;;;;;;8.63;5.45;;;;;;;3.64;95.06;101138.41;4934713;28;20101;-70
2021/04/12 04:30:41;;;;;;;7.47;5.05;;;;;;;3.45;95.21;101154.44;4969009;28;20061;-72
2021/04/12 04:33:22;;;;;;;5.70;4.80;;;;;;;3.56;95.57;101154.22;4966088;28;20057;-71
2021/04/12 04:36:23;;;;;;;5.88;4.28;;;;;;;3.57;94.37;101155.09;4968736;28;20593;-71
2021/04/12 04:39:27;;;;;;;6.50;4.10;;;;;;;3.48;94.60;101161.34;4965173;28;20232;-73
2021/04/12 04:42:07;;;;;;;9.95;4.30;;;;;;;3.55;94.94;101161.16;4983432;28;20130;-71
2021/04/12 04:45:11;;;;;;;8.55;4.10;;;;;;;3.42;95.01;101175.34;4962678;28;20065;-73
2021/04/12 04:48:10;;;;;;;7.45;4.15;;;;;;;3.61;94.79;101177.56;4965382;28;20062;-72
2021/04/12 04:51:14;;;;;;;6.50;4.07;;;;;;;3.57;94.63;101176.75;4946776;28;20462;-72
2021/04/12 04:54:09;;;;;;;6.15;3.95;;;;;;;3.54;94.05;101193.28;4970389;28;20058;-72
2021/04/12 04:56:50;;;;;;;9.80;4.63;;;;;;;3.46;95.09;101189.97;4964928;28;20146;-72
2021/04/12 04:59:25;;;;;;;6.72;4.55;;;;;;;3.64;95.31;101195.69;4969469;28;20076;-70
2021/04/12 05:01:55;;;;;;;6.97;4.68;;;;;;;3.74;94.19;101205.06;4967618;28;20066;-70
2021/04/12 05:04:26;;;;;;;5.35;3.88;;;;;;;3.90;93.55;101214.22;4951595;28;20130;-71
2021/04/12 05:07:17;;;;;;;8.25;4.32;;;;;;;3.83;92.05;101217.00;4933204;28;20145;-72
2021/04/12 05:09:57;;;;;;;6.32;3.90;;;;;;;3.50;92.62;101214.22;4948549;28;20501;-73
2021/04/12 05:12:38;;;;;;;7.40;4.00;;;;;;;3.57;92.79;101215.81;4956045;28;20601;-71
2021/04/12 05:15:46;;;;;;;5.95;4.28;;;;;;;3.62;91.85;101220.94;4966968;28;20047;-71
2021/04/12 05:18:50;;;;;;;10.50;4.97;;;;;;;3.56;92.09;101229.72;4951820;28;20121;-71
2021/04/12 05:21:38;;;;;;;7.32;4.07;;;;;;;3.53;92.34;101237.59;4937209;28;21016;-70
2021/04/12 05:24:24;;;;;;;6.57;3.50;;;;;;;3.78;91.59;101244.03;4933319;28;20104;-69
2021/04/12 05:26:55;;;;;;;;;;;;;;;3.84;90.92;101249.97;4963148;28;20142;-71
2021/04/12 05:29:49;;;;;;;7.15;3.42;;;;;;;3.67;90.17;101247.72;4926556;28;20543;-70
2021/04/12 05:32:34;;;;;;;4.05;3.35;;;;;;;3.84;90.42;101249.97;4948030;28;20414;-69
2021/04/12 05:35:05;;;;;;;4.82;3.65;;;;;;;3.76;90.72;101261.41;4966280;28;20062;-71
2021/04/12 05:37:55;;;;;;;6.30;3.45;;;;;;;3.84;88.99;101263.00;4953635;28;20059;-70
2021/04/12 05:40:40;;;;;;;11.32;3.72;;;;;;;4.05;88.54;101259.91;4949324;28;20525;-71
2021/04/12 05:43:19;;;;;;;10.15;3.97;;;;;;;4.01;88.07;101261.75;4932638;28;20047;-72
2021/04/12 05:45:48;;;;;;;9.15;2.92;;;;;;;4.04;87.58;101269.47;4950520;28;20063;-70
2021/04/12 05:48:29;;;;;;;10.30;3.67;;;;;;;3.89;87.81;101277.63;4951053;28;20076;-68
2021/04/12 05:51:21;;;;;;;11.98;3.10;;;;;;;3.90;86.74;101279.34;4952065;28;20055;-70
2021/04/12 05:54:22;;;;;;;8.07;3.40;;;;;;;3.99;87.19;101284.38;4965729;28;20135;-72
2021/04/12 05:57:11;;;;;;;6.80;3.35;;;;;;;4.06;87.45;101287.72;4941243;28;20526;-70
2021/04/12 06:00:02;;;;;;;4.40;2.78;;;;;;;4.26;86.60;101297.69;4941099;28;20146;-69
2021/04/12 06:02:44;;;;;;;7.93;3.15;;;;;;;4.28;86.01;101295.91;4966702;28;20066;-69
2021/04/12 06:05:35;;;;;;;5.75;3.03;;;;;;;4.23;86.56;101314.28;4953311;28;20330;-68
2021/04/12 06:08:21;;;;;;;10.43;3.05;;;;;;;4.13;86.26;101312.72;4952479;28;20478;-71
2021/04/12 06:10:53;;;;;;;10.83;2.70;;;;;;;4.13;87.29;101324.91;4955535;28;20297;-69
2021/04/12 06:13:40;;;;;;;6.97;2.72;;;;;;;4.20;86.18;101326.50;4957884;28;20637;-71
2021/04/12 06:16:35;;;;;;;2.95;2.13;;;;;;;4.29;86.18;101331.50;4947941;28;20536;-70
2021/04/12 06:19:44;;;;;;;5.80;2.20;;;;;;;4.41;84.80;101339.03;4954771;28;20389;-71
2021/04/12 06:22:35;;;;;;;5.07;2.25;;;;;;;4.43;84.90;101354.69;4972473;28;20054;-70
2021/04/12 06:25:38;;;;;;;5.47;2.28;;;;;;;4.36;83.98;101351.31;4975192;28;20051;-69
2021/04/12 06:28:29;;;;;;;6.90;1.90;;;;;;;4.42;82.83;101351.22;4956081;28;20617;-68
2021/04/12 06:31:22;;;;;;;7.78;1.90;;;;;;;4.43;82.18;101349.47;4967835;28;20183;-69
2021/04/12 06:34:28;;;;;;;4.72;2.03;;;;;;;4.41;81.22;101346.00;4954219;28;20137;-69
2021/04/12 06:37:36;;;;;;;5.10;2.00;;;;;;;4.54;81.42;101363.09;4973303;28;20059;-70
2021/04/12 06:40:26;;;;;;;5.30;2.08;;;;;;;4.28;81.00;101363.69;4909910;28;20056;-72
2021/04/12 06:43:08;;;;;;;8.20;2.17;;;;;;;4.13;82.42;101364.00;4950932;28;20142;-71
2021/04/12 06:46:06;;;;;;;6.03;2.03;;;;;;;4.17;82.44;101366.50;4969826;28;20571;-70
2021/04/12 06:48:51;;;;;;;16.33;3.35;;;;;;;4.51;82.93;101368.41;4980491;28;20600;-70
2021/04/12 06:51:50;;;;;;;8.73;2.73;;;;;;;4.46;81.78;101368.50;4945291;28;20046;-70
2021/04/12 06:54:35;;;;;;;6.25;2.58;;;;;;;4.86;80.91;101369.34;4940258;28;20172;-69
2021/04/12 06:57:41;;;;;;;3.45;1.42;;;;;;;5.24;78.41;101363.22;4963111;28;20522;-70
2021/04/12 07:00:31;;;;;;;19.77;2.22;;;;;;;5.15;77.56;101373.88;4952777;28;20058;-71
2021/04/12 07:03:29;;;;;;;5.15;1.70;;;;;;;5.48;77.37;101365.19;4946713;28;20053;-68
2021/04/12 07:06:31;;;;;;;6.15;1.80;;;;;;;5.15;76.94;101366.91;4966774;28;20142;-72
2021/04/12 07:09:25;;;;;;;5.03;2.05;;;;;;;5.37;77.41;101376.81;4969214;28;20658;-70
2021/04/12 07:12:28;;;;;;;8.52;1.92;;;;;;;5.61;75.66;101388.38;4967001;28;20051;-71
2021/04/12 07:15:32;;;;;;;13.10;2.47;;;;;;;5.55;75.43;101379.81;4975858;28;20059;-71
2021/04/12 07:18:23;;;;;;;6.45;2.00;;;;;;;5.08;75.14;101387.06;4955135;28;20069;-68
2021/04/12 07:21:17;;;;;;;6.15;1.98;;;;;;;5.22;76.62;101383.25;4949338;28;20304;-71
2021/04/12 07:23:43;;;;;;;10.73;1.58;;;;;;;5.46;74.64;101385.25;4959654;28;20074;-69
2021/04/12 07:26:25;;;;;;;9.02;2.35;;;;;;;5.65;74.56;101384.78;4974102;28;20047;-70
2021/04/12 07:29:11;;;;;;;2.70;1.35;;;;;;;5.62;73.91;101392.69;4967496;28;20047;-70
2021/04/12 07:31:55;;;;;;;7.10;2.63;;;;;;;5.89;73.22;101394.56;4968463;28;20177;-69
2021/04/12 07:34:59;;;;;;;11.43;2.53;;;;;;;5.63;73.73;101399.63;4954326;28;20046;-69
2021/04/12 07:37:53;;;;;;;11.23;2.25;;;;;;;5.59;78.83;101404.09;4952609;28;20089;-69
2021/04/12 07:40:54;;;;;;;8.18;2.20;;;;;;;5.71;75.67;101402.91;4952093;28;20078;-69
2021/04/12 07:43:58;;;;;;;3.35;1.60;;;;;;;6.12;73.00;101422.72;4950094;28;20062;-69
2021/04/12 07:47:02;;;;;;;3.63;1.40;;;;;;;5.69;72.41;101412.53;4977755;28;20064;-72
2021/04/12 07:49:53;;;;;;;8.02;1.50;;;;;;;4.95;74.44;101419.56;4966755;28;20139;-72
2021/04/12 07:52:56;;;;;;;4.72;1.35;;;;;;;5.19;74.23;101425.13;4952489;28;20146;-71
2021/04/12 07:55:35;;;;;;;16.05;1.67;;;;;;;5.42;72.13;101425.41;4969774;28;20545;-70
2021/04/12 07:58:23;;;;;;;7.10;1.48;;;;;;;5.52;71.84;101428.63;4943809;28;20101;-70
2021/04/12 08:01:13;;;;;;;11.68;1.83;;;;;;;5.96;71.49;101424.06;4950457;28;20078;-71
2021/04/12 08:04:20;;;;;;;5.95;2.15;;;;;;;5.85;71.77;101426.91;4952265;28;20081;-72
2021/04/12 08:07:31;;;;;;;7.70;2.22;;;;;;;6.34;70.61;101429.06;4943888;28;20480;-69
2021/04/12 08:10:34;;;;;;;6.53;1.50;;;;;;;6.58;69.50;101432.75;4967204;28;20105;-70
2021/04/12 08:13:44;;;;;;;10.20;1.80;;;;;;;6.57;67.32;101433.66;4959546;28;20218;-70
2021/04/12 08:16:38;;;;;;;4.45;1.77;;;;;;;6.88;66.91;101440.56;4960871;28;20535;-69
2021/04/12 08:19:22;;;;;;;3.28;1.50;;;;;;;6.77;67.93;101451.38;4968294;28;20078;-72
2021/04/12 08:22:10;;;;;;;5.00;1.25;;;;;;;7.04;66.86;101451.44;4955253;28;20154;-71
2021/04/12 08:24:50;;;;;;;5.85;1.75;;;;;;;7.16;65.70;101463.25;4972762;28;20142;-71
2021/04/12 08:27:42;;;;;;;12.50;1.35;;;;;;;7.00;65.11;101462.91;4946853;28;20043;-71
2021/04/12 08:30:50;;;;;;;4.53;1.30;;;;;;;6.85;64.77;101469.47;4960599;28;20059;-70
2021/04/12 08:34:01;;;;;;;5.10;2.33;;;;;;;6.13;65.94;101476.75;4964201;28;20055;-70
2021/04/12 08:37:05;;;;;;;6.63;1.38;;;;;;;6.65;65.32;101482.25;4963227;28;20134;-70
2021/04/12 08:40:10;;;;;;;9.88;1.88;;;;;;;6.74;63.90;101490.69;4944602;28;20146;-70
2021/04/12 08:43:03;;;;;;;5.85;2.30;;;;;;;6.87;61.99;101503.44;4966543;28;20396;-69
2021/04/12 08:45:35;;;;;;;10.43;1.65;;;;;;;6.57;63.92;101496.44;4967574;28;20058;-69
2021/04/12 08:48:47;;;;;;;6.38;1.83;;;;;;;6.84;64.06;101497.41;4961392;28;20062;-70
2021/04/12 08:51:38;;;;;;;7.90;1.75;;;;;;;6.56;65.69;101501.69;4956435;28;20496;-70
2021/04/12 08:54:42;;;;;;;5.40;1.00;;;;;;;6.78;63.52;101501.94;4969620;28;20167;-69
2021/04/12 08:57:31;;;;;;;4.90;1.60;;;;;;;6.92;64.16;101499.78;4970715;28;20121;-69
2021/04/12 09:00:03;;;;;;;8.38;1.55;;;;;;;7.61;61.80;101497.63;4978702;28;20082;-70
2021/04/12 09:03:05;;;;;;;5.10;1.65;;;;;;;6.95;63.03;101509.31;4968526;28;20398;-69
2021/04/12 09:05:52;;;;;;;6.03;1.40;;;;;;;7.72;60.15;101510.38;4967418;28;20053;-71
2021/04/12 09:08:43;;;;;;;16.58;3.00;;;;;;;7.36;60.63;101506.28;4970328;28;20126;-70
2021/04/12 09:11:32;;;;;;;2.80;1.20;;;;;;;7.52;60.62;101505.75;4968125;28;20058;-69
2021/04/12 09:14:21;;;;;;;10.02;1.40;;;;;;;8.26;58.32;101491.06;4951735;28;20050;-70
2021/04/12 09:16:54;;;;;;;3.40;1.10;;;;;;;8.50;57.34;101491.97;4963508;28;20059;-69
2021/04/12 09:19:49;;;;;;;7.15;1.45;;;;;;;9.32;55.26;101487.94;4974467;28;20267;-70
2021/04/12 09:22:25;;;;;;;6.95;1.00;;;;;;;9.67;54.09;101485.66;4955215;28;20042;-71
2021/04/12 09:24:58;;;;;;;8.18;1.20;;;;;;;8.63;55.60;101494.06;4959757;28;20469;-69
2021/04/12 09:27:53;;;;;;;8.27;1.40;;;;;;;9.06;54.95;101495.09;4952854;28;20043;-69
2021/04/12 09:30:31;;;;;;;3.50;1.20;;;;;;;8.74;55.57;101501.56;4970414;28;20117;-69
2021/04/12 09:33:33;;;;;;;7.95;1.42;;;;;;;8.79;54.61;101501.41;4975735;28;20085;-69
2021/04/12 09:36:25;;;;;;;8.07;2.13;;;;;;;7.73;58.08;101499.84;4951350;28;20469;-70
2021/04/12 09:39:27;;;;;;;6.18;1.77;;;;;;;7.64;58.25;101512.38;4967289;28;20252;-70
2021/04/12 09:42:38;;;;;;;6.70;1.52;;;;;;;7.41;59.38;101521.00;4956643;28;20109;-70
2021/04/12 09:45:46;;;;;;;5.25;1.35;;;;;;;7.68;58.03;101517.47;4963254;28;20057;-72
2021/04/12 09:48:36;;;;;;;3.78;1.10;;;;;;;7.53;58.21;101525.84;4910528;29;20064;-69
2021/04/12 09:51:38;;;;;;;8.52;1.15;;;;;;;7.28;59.37;101528.38;4909322;29;20052;-71
2021/04/12 09:54:22;;;;;;;13.13;1.63;;;;;;;7.41;58.99;101526.22;4954970;28;20078;-70
2021/04/12 09:57:36;;;;;;;2.85;1.30;;;;;;;7.53;59.11;101525.84;4930014;28;20054;-71
2021/04/12 10:00:06;;;;;;;6.88;2.03;;;;;;;8.48;58.76;101517.41;4962118;28;20416;-70
2021/04/12 10:02:52;;;;;;;4.88;2.08;;;;;;;8.66;55.65;101529.03;4954490;28;20046;-72
2021/04/12 10:06:03;;;;;;;8.40;1.83;;;;;;;8.44;54.99;101524.53;4955618;28;20177;-69
2021/04/12 10:08:35;;;;;;;8.70;1.30;;;;;;;8.74;54.38;101519.09;4948384;28;20161;-70
2021/04/12 10:11:10;;;;;;;9.48;1.75;;;;;;;8.52;56.27;101517.25;4957607;28;20058;-72
2021/04/12 10:13:43;;;;;;;4.35;1.75;;;;;;;8.54;58.95;101532.94;4965584;28;20101;-70
2021/04/12 10:16:22;;;;;;;7.30;1.50;;;;;;;8.38;55.29;101518.66;4949934;28;20106;-72
2021/04/12 10:19:16;;;;;;;6.85;1.88;;;;;;;8.86;53.90;101526.50;4973078;28;20077;-70
2021/04/12 10:21:59;;;;;;;4.93;1.40;;;;;;;8.46;53.82;101537.59;4974649;28;20054;-70
2021/04/12 10:24:31;;;;;;;6.13;1.70;;;;;;;9.29;52.84;101540.63;4971578;28;20077;-71
2021/04/12 10:27:10;;;;;;;5.60;1.13;;;;;;;9.11;53.27;101543.06;4948822;28;20477;-72
2021/04/12 10:29:49;;;;;;;8.30;2.28;;;;;;;8.56;53.54;101542.47;4948973;28;20061;-71
2021/04/12 10:32:20;;;;;;;6.53;2.00;;;;;;;8.92;52.98;101539.41;4968712;28;20062;-71
2021/04/12 10:34:49;;;;;;;3.90;1.48;;;;;;;8.87;54.18;101538.69;4956573;28;20050;-69
2021/04/12 10:37:43;;;;;;;8.55;3.22;;;;;;;8.71;55.09;101545.44;4956499;28;20443;-72
2021/04/12 10:40:19;;;;;;;7.55;1.67;;;;;;;8.22;56.32;101552.41;4951161;28;20065;-71
2021/04/12 10:43:20;;;;;;;5.47;1.55;;;;;;;8.28;55.89;101547.78;4978016;28;20242;-69
2021/04/12 10:45:55;;;;;;;3.83;1.80;;;;;;;8.37;55.72;101554.50;4963767;28;20054;-71
2021/04/12 10:48:30;;;;;;;5.78;1.40;;;;;;;8.22;54.82;101562.88;4960996;28;20054;-71
2021/04/12 10:51:06;;;;;;;6.85;2.05;;;;;;;8.05;55.86;101579.19;4960930;28;20064;-71
2021/04/12 10:53:34;;;;;;;;;;;;;;;7.94;55.88;101576.06;4931567;28;20195;-70
2021/04/12 10:56:05;;;;;;;7.05;1.90;;;;;;;8.13;55.85;101572.78;4927868;28;19933;-70
2021/04/12 10:58:54;;;;;;;5.18;1.60;;;;;;;8.06;57.33;101580.88;4965585;28;20133;-70
2021/04/12 11:01:30;;;;;;;11.25;1.80;;;;;;;8.05;55.61;101581.81;4967252;28;20055;-69
2021/04/12 11:04:11;;;;;;;7.97;1.80;;;;;;;8.04;55.67;101580.94;4956350;28;20220;-69
2021/04/12 11:06:54;;;;;;;5.05;1.42;;;;;;;8.38;53.94;101579.88;4952121;28;20328;-70
2021/04/12 11:09:36;;;;;;;5.80;1.50;;;;;;;8.51;54.33;101586.41;4975236;28;20132;-69
2021/04/12 11:12:26;;;;;;;9.75;1.95;;;;;;;8.02;56.04;101588.03;4946842;28;20147;-70
2021/04/12 11:15:21;;;;;;;6.22;1.80;;;;;;;8.20;55.87;101581.31;4972521;28;20055;-71
2021/04/12 11:17:58;;;;;;;8.80;1.88;;;;;;;7.29;57.46;101588.53;4951101;28;20524;-70
2021/04/12 11:20:44;;;;;;;6.07;1.48;;;;;;;7.51;57.01;101594.00;4950291;28;20133;-70
2021/04/12 11:23:39;;;;;;;13.48;1.70;;;;;;;7.95;55.88;101594.38;4951596;28;20478;-70
2021/04/12 11:26:25;;;;;;;8.18;1.67;;;;;;;8.02;54.10;101589.78;4968170;28;20054;-71
2021/04/12 11:29:20;;;;;;;4.18;1.30;;;;;;;7.61;55.50;101589.34;4969275;28;20066;-72
2021/04/12 11:31:58;;;;;;;16.02;1.55;;;;;;;7.25;56.56;101586.06;4950463;28;20055;-70
2021/04/12 11:34:41;;;;;;;8.07;1.35;;;;;;;7.47;56.74;101586.28;4934590;28;20068;-71
2021/04/12 11:37:38;;;;;;;5.68;1.58;;;;;;;7.43;55.58;101582.03;4964111;28;20132;-70
2021/04/12 11:40:13;;;;;;;8.45;1.60;;;;;;;7.43;56.66;101587.28;4969245;28;20059;-69
2021/04/12 11:42:43;;;;;;;13.02;1.42;;;;;;;7.43;55.50;101580.31;4950984;28;20477;-69
2021/04/12 11:45:18;;;;;;;3.65;1.25;;;;;;;7.68;54.86;101580.38;4957206;28;20051;-68
2021/04/12 11:48:01;;;;;;;1.45;0.80;;;;;;;7.94;53.84;101582.16;4966359;28;20074;-69
2021/04/12 11:51:04;;;;;;;7.13;1.55;;;;;;;8.07;53.27;101587.88;4949059;28;20065;-70
2021/04/12 11:53:31;;;;;;;2.88;1.05;;;;;;;7.98;53.00;101594.28;4942130;28;20451;-69
2021/04/12 11:56:25;;;;;;;8.27;1.30;;;;;;;7.72;54.27;101592.47;4972337;28;20134;-71
2021/04/12 11:59:02;;;;;;;8.18;1.48;;;;;;;7.53;55.32;101602.69;4933799;28;20068;-72
2021/04/12 12:01:47;;;;;;;6.10;1.20;;;;;;;7.93;53.96;101600.59;4966027;28;20509;-69
2021/04/12 12:04:33;;;;;;;5.50;1.50;;;;;;;7.79;53.76;101599.25;4975886;28;20066;-69
2021/04/12 12:07:31;;;;;;;11.00;1.92;;;;;;;8.38;52.96;101595.59;4959225;28;20130;-68
2021/04/12 12:10:15;;;;;;;6.20;1.05;;;;;;;8.43;52.03;101598.94;4951561;28;20134;-70
2021/04/12 12:12:53;;;;;;;10.45;1.98;;;;;;;8.21;52.22;101606.63;4952793;28;20073;-68
2021/04/12 12:15:41;;;;;;;3.78;1.10;;;;;;;7.72;52.42;101615.22;4950517;28;20085;-69
2021/04/12 12:18:32;;;;;;;4.32;1.30;;;;;;;7.89;52.00;101615.56;4948927;28;20059;-68
2021/04/12 12:21:10;;;;;;;6.82;1.27;;;;;;;8.23;51.82;101614.44;4950579;28;20520;-71
2021/04/12 12:24:12;;;;;;;3.40;0.82;;;;;;;8.29;50.29;101614.25;4977075;28;20125;-70
2021/04/12 12:26:42;;;;;;;2.75;0.90;;;;;;;7.87;51.09;101607.72;4971093;28;20042;-68
2021/04/12 12:29:17;;;;;;;3.78;1.10;;;;;;;8.41;50.36;101616.47;4966390;28;20470;-72
2021/04/12 12:32:03;;;;;;;3.97;1.30;;;;;;;8.49;49.69;101606.56;4961860;28;20110;-70
2021/04/12 12:34:52;;;;;;;4.10;0.93;;;;;;;9.06;48.80;101609.81;4954071;28;20056;-69
2021/04/12 12:37:37;;;;;;;3.53;0.98;;;;;;;9.05;47.87;101621.22;4967256;28;20236;-69
2021/04/12 12:40:15;;;;;;;3.08;0.80;;;;;;;9.21;47.90;101627.63;4971545;28;20309;-70
2021/04/12 12:42:46;;;;;;;2.08;0.70;;;;;;;8.92;48.01;101625.22;4945878;28;20209;-71
2021/04/12 12:45:16;;;;;;;5.65;1.05;;;;;;;8.16;49.14;101628.69;4948524;28;20046;-71
2021/04/12 12:47:48;;;;;;;3.97;1.10;;;;;;;8.17;49.42;101631.25;4944828;28;20489;-70
2021/04/12 12:50:21;;;;;;;3.97;1.35;;;;;;;8.17;48.49;101636.50;4963206;28;20054;-73
2021/04/12 12:52:54;;;;;;;22.48;2.90;;;;;;;8.35;48.43;101629.78;4966147;28;20110;-70
2021/04/12 12:55:26;;;;;;;7.00;1.15;;;;;;;8.85;47.43;101628.06;4950229;28;20177;-70
2021/04/12 12:57:54;;;;;;;5.15;1.15;;;;;;;9.16;47.43;101632.19;4937966;28;20075;-67
2021/04/12 13:00:24;;;;;;;8.02;0.90;;;;;;;8.99;46.42;101640.69;4956748;28;20456;-69
2021/04/12 13:02:51;;;;;;;3.05;0.90;;;;;;;9.09;45.71;101644.69;4950345;28;20046;-68
2021/04/12 13:05:22;;;;;;;2.22;0.77;;;;;;;9.00;45.78;101633.66;4945017;28;20141;-68